createdAt,value
2018-11-20T00:04:32.123Z,8.00
2018-11-20T00:09:50.487Z,7.75
2018-11-20T00:15:10.005Z,8.40
2018-11-20T00:20:35.912Z,8.00
2018-11-20T00:25:58.692Z,7.00
2018-11-20T00:31:17.262Z,7.75
2018-11-20T00:36:46.354Z,6.80
2018-11-20T00:42:42.878Z,8.00
2018-11-20T00:48:18.185Z,8.00
2018-11-20T00:53:41.540Z,5.60
2018-11-20T00:58:57.706Z,7.00
2018-11-20T01:04:30.768Z,6.00
2018-11-20T01:09:48.469Z,8.00
2018-11-20T01:15:10.478Z,7.00
2018-11-20T01:20:32.442Z,7.75
2018-11-20T01:25:58.680Z,7.00
2018-11-20T01:31:40.247Z,8.00
2018-11-20T01:37:02.731Z,8.00
2018-11-20T01:42:41.411Z,7.50
2018-11-20T01:48:16.565Z,7.80
2018-11-20T01:53:49.076Z,8.00
2018-11-20T01:59:03.718Z,7.75
2018-11-20T02:04:30.135Z,7.00
2018-11-20T02:09:51.895Z,8.50
2018-11-20T02:15:07.033Z,7.25
2018-11-20T02:20:24.561Z,7.00
2018-11-20T02:25:53.651Z,7.25
2018-11-20T02:31:15.572Z,8.00
2018-11-20T02:36:37.641Z,8.25
2018-11-20T02:41:59.684Z,7.40
2018-11-20T02:47:23.036Z,7.20
2018-11-20T02:52:56.834Z,7.00
2018-11-20T02:58:16.297Z,7.25
2018-11-20T03:03:51.504Z,8.00
2018-11-20T03:09:14.831Z,8.00
2018-11-20T03:14:26.780Z,7.25
2018-11-20T03:19:48.520Z,8.00
2018-11-20T03:25:17.449Z,8.00
2018-11-20T03:31:19.741Z,8.00
2018-11-20T03:36:43.059Z,6.50
2018-11-20T03:41:57.036Z,9.00
2018-11-20T03:47:26.009Z,7.60
2018-11-20T03:52:49.155Z,8.00
2018-11-20T03:58:15.392Z,7.60
2018-11-20T04:03:27.095Z,7.50
2018-11-20T04:08:42.888Z,6.50
2018-11-20T04:14:10.661Z,7.25
2018-11-20T04:19:28.045Z,6.50
2018-11-20T04:24:52.826Z,7.25
2018-11-20T04:30:55.675Z,8.00
2018-11-20T04:36:13.322Z,8.00
2018-11-20T04:41:27.890Z,6.60
2018-11-20T04:46:49.946Z,8.00
2018-11-20T04:52:13.267Z,8.00
2018-11-20T04:57:35.137Z,7.80
2018-11-20T05:02:57.167Z,7.25
2018-11-20T05:08:24.561Z,6.60
2018-11-20T05:13:42.533Z,7.60
2018-11-20T05:19:06.850Z,7.40
2018-11-20T05:24:28.670Z,7.25
2018-11-20T05:29:56.765Z,8.00
2018-11-20T05:35:09.592Z,8.00
2018-11-20T05:40:41.930Z,7.60
2018-11-20T05:46:08.124Z,7.75
2018-11-20T05:51:31.491Z,6.75
2018-11-20T05:56:46.708Z,7.50
2018-11-20T06:02:10.035Z,8.00
2018-11-20T06:07:32.444Z,7.00
2018-11-20T06:12:54.499Z,8.20
2018-11-20T06:18:23.771Z,8.00
2018-11-20T06:23:40.938Z,7.00
2018-11-20T06:28:55.277Z,8.00
2018-11-20T06:34:18.578Z,8.00
2018-11-20T06:40:00.079Z,8.00
2018-11-20T06:45:21.935Z,7.00
2018-11-20T06:51:17.753Z,9.00
2018-11-20T06:56:31.268Z,7.00
2018-11-20T07:01:53.395Z,8.00
2018-11-20T07:07:14.626Z,7.40
2018-11-20T07:12:35.980Z,7.60
2018-11-20T07:17:57.578Z,7.00
2018-11-20T07:23:35.416Z,8.00
2018-11-20T07:28:57.944Z,7.60
2018-11-20T07:34:23.178Z,8.00
2018-11-20T07:39:54.912Z,9.00
2018-11-20T07:45:32.532Z,8.00
2018-11-20T07:51:04.035Z,9.00
2018-11-20T07:56:23.034Z,9.00
2018-11-20T08:01:38.473Z,10.50
2018-11-20T08:07:01.029Z,9.00
2018-11-20T08:12:17.507Z,9.75
2018-11-20T08:17:52.078Z,10.00
2018-11-20T08:23:20.800Z,10.00
2018-11-20T08:28:43.907Z,9.20
2018-11-20T08:34:09.273Z,10.00
2018-11-20T08:39:40.981Z,12.00
2018-11-20T08:45:03.584Z,9.25
2018-11-20T08:50:20.483Z,10.20
2018-11-20T08:55:49.006Z,10.40
2018-11-20T09:01:11.569Z,9.75
2018-11-20T09:06:32.882Z,10.50
2018-11-20T09:12:13.804Z,10.50
2018-11-20T09:17:36.346Z,10.00
2018-11-20T09:22:58.880Z,8.75
2018-11-20T09:28:39.928Z,9.75
2018-11-20T09:34:02.489Z,9.50
2018-11-20T09:39:29.384Z,9.20
2018-11-20T09:45:02.301Z,12.00
2018-11-20T09:50:34.104Z,10.20
2018-11-20T09:56:11.640Z,9.75
2018-11-20T10:01:25.574Z,10.00
2018-11-20T10:06:53.824Z,9.25
2018-11-20T10:12:24.071Z,9.00
2018-11-20T10:17:55.298Z,10.25
2018-11-20T10:23:24.596Z,10.00
2018-11-20T10:28:45.813Z,9.40
2018-11-20T10:34:00.280Z,9.20
2018-11-20T10:39:25.464Z,9.60
2018-11-20T10:44:46.722Z,9.80
2018-11-20T10:50:15.402Z,25.40
2018-11-20T10:55:36.705Z,26.60
2018-11-20T11:00:57.771Z,27.75
2018-11-20T11:06:19.277Z,23.25
2018-11-20T11:11:31.389Z,22.00
2018-11-20T11:16:52.801Z,22.80
2018-11-20T11:22:14.077Z,21.00
2018-11-20T11:27:34.986Z,21.00
2018-11-20T11:33:02.001Z,19.00
2018-11-20T11:38:27.620Z,18.00
2018-11-20T11:43:58.216Z,17.80
2018-11-20T11:49:39.110Z,18.50
2018-11-20T11:55:00.326Z,17.00
2018-11-20T12:00:21.808Z,16.75
2018-11-20T12:05:59.316Z,17.00
2018-11-20T12:11:20.661Z,21.25
2018-11-20T12:16:51.894Z,21.00
2018-11-20T12:22:13.160Z,18.75
2018-11-20T12:27:34.022Z,19.25
2018-11-20T12:32:50.944Z,18.50
2018-11-20T12:38:19.899Z,19.00
2018-11-20T12:43:44.058Z,16.75
2018-11-20T12:49:18.753Z,19.75
2018-11-20T12:54:36.682Z,16.00
2018-11-20T12:59:57.982Z,16.40
2018-11-20T13:05:20.522Z,17.50
2018-11-20T13:10:41.626Z,17.00
2018-11-20T13:15:56.614Z,18.00
2018-11-20T13:21:11.084Z,18.00
2018-11-20T13:26:27.161Z,17.40
2018-11-20T13:31:51.356Z,16.25
2018-11-20T13:37:29.213Z,15.80
2018-11-20T13:42:51.785Z,17.50
2018-11-20T13:48:18.409Z,13.50
2018-11-20T13:53:46.836Z,16.20
2018-11-20T13:59:08.255Z,15.50
2018-11-20T14:04:29.705Z,14.50
2018-11-20T14:09:50.817Z,14.50
2018-11-20T14:15:19.602Z,13.75
2018-11-20T14:20:41.046Z,14.00
2018-11-20T14:26:14.679Z,14.60
2018-11-20T14:31:33.225Z,15.50
2018-11-20T14:36:54.686Z,13.20
2018-11-20T14:42:23.297Z,13.25
2018-11-20T14:48:04.345Z,13.60
2018-11-20T14:53:25.585Z,13.50
2018-11-20T14:58:46.835Z,12.75
2018-11-20T15:03:58.110Z,13.00
2018-11-20T15:09:23.880Z,13.00
2018-11-20T15:14:44.927Z,14.00
2018-11-20T15:20:16.225Z,12.75
2018-11-20T15:25:31.350Z,14.80
2018-11-20T15:31:01.775Z,12.20
2018-11-20T15:36:12.463Z,12.75
2018-11-20T15:41:33.507Z,12.80
2018-11-20T15:46:58.646Z,13.00
2018-11-20T15:52:19.056Z,13.00
2018-11-20T15:57:40.149Z,12.50
2018-11-20T16:02:55.986Z,13.00
2018-11-20T16:08:17.309Z,13.25
2018-11-20T16:13:55.236Z,11.75
2018-11-20T16:19:29.702Z,12.50
2018-11-20T16:24:55.119Z,11.00
2018-11-20T16:30:25.232Z,12.50
2018-11-20T16:35:47.772Z,11.00
2018-11-20T16:41:04.832Z,11.75
2018-11-20T16:46:30.566Z,11.50
2018-11-20T16:51:59.243Z,11.60
2018-11-20T16:57:24.527Z,10.75
2018-11-20T17:02:59.783Z,11.20
2018-11-20T17:08:22.306Z,11.00
2018-11-20T17:13:53.676Z,12.50
2018-11-20T17:19:10.216Z,10.75
2018-11-20T17:24:31.566Z,11.25
2018-11-20T17:29:55.469Z,12.80
2018-11-20T17:35:18.715Z,10.80
2018-11-20T17:40:41.231Z,11.40
2018-11-20T17:45:57.372Z,10.40
2018-11-20T17:51:15.755Z,11.20
2018-11-20T17:56:47.082Z,10.25
2018-11-20T18:02:07.241Z,11.00
2018-11-20T18:07:41.982Z,11.25
2018-11-20T18:13:13.492Z,9.75
2018-11-20T18:18:39.709Z,11.00
2018-11-20T18:24:01.160Z,11.60
2018-11-20T18:29:22.534Z,11.75
2018-11-20T18:34:34.365Z,10.75
2018-11-20T18:39:55.311Z,11.00
2018-11-20T18:45:23.059Z,11.50
2018-11-20T18:50:43.198Z,9.50
2018-11-20T18:56:04.232Z,9.50
2018-11-20T19:01:41.781Z,9.40
2018-11-20T19:06:54.143Z,11.00
2018-11-20T19:12:15.576Z,11.00
2018-11-20T19:17:50.066Z,10.60
2018-11-20T19:23:24.688Z,11.00
2018-11-20T19:28:49.107Z,11.40
2018-11-20T19:34:11.461Z,11.00
2018-11-20T19:39:36.715Z,11.20
2018-11-20T19:44:53.643Z,12.00
2018-11-20T19:50:31.410Z,10.75
2018-11-20T19:55:53.748Z,10.75
2018-11-20T20:01:15.091Z,11.75
2018-11-20T20:06:36.167Z,10.75
2018-11-20T20:12:07.858Z,12.00
2018-11-20T20:17:36.291Z,13.50
2018-11-20T20:22:49.320Z,12.40
2018-11-20T20:28:20.917Z,13.00
2018-11-20T20:33:41.903Z,11.50
2018-11-20T20:38:59.599Z,11.50
2018-11-20T20:44:28.123Z,13.00
2018-11-20T20:49:49.151Z,10.50
2018-11-20T20:55:11.674Z,12.00
2018-11-20T21:00:34.594Z,11.25
2018-11-20T21:05:57.118Z,14.60
2018-11-20T21:11:19.692Z,11.25
2018-11-20T21:16:40.769Z,12.00
2018-11-20T21:22:15.481Z,12.50
2018-11-20T21:27:36.746Z,10.75
2018-11-20T21:33:08.599Z,11.00
2018-11-20T21:38:29.884Z,12.00
2018-11-20T21:43:51.501Z,12.00
2018-11-20T21:49:23.202Z,11.60
2018-11-20T21:54:39.840Z,12.50
2018-11-20T22:00:06.506Z,10.25
2018-11-20T22:05:32.236Z,10.80
2018-11-20T22:10:53.337Z,11.00
2018-11-20T22:16:20.459Z,12.40
2018-11-20T22:21:35.489Z,11.80
2018-11-20T22:26:46.482Z,11.50
2018-11-20T22:32:19.829Z,10.50
2018-11-20T22:37:39.669Z,10.75
2018-11-20T22:43:01.166Z,10.00
2018-11-20T22:48:20.323Z,10.25
2018-11-20T22:53:41.459Z,10.25
2018-11-20T22:59:06.288Z,11.00
2018-11-20T23:04:37.746Z,10.00
2018-11-20T23:09:41.775Z,11.00
2018-11-20T23:14:45.504Z,10.40
2018-11-20T23:19:49.099Z,11.00
2018-11-20T23:24:52.874Z,9.75
2018-11-20T23:29:56.370Z,11.50
2018-11-20T23:34:59.973Z,11.00
2018-11-20T23:40:03.585Z,9.75
2018-11-20T23:45:12.920Z,10.40
2018-11-20T23:50:16.601Z,10.60
2018-11-20T23:55:20.089Z,10.25
